ENVA/TRD METAR and TAF weather

Enter ICAO airport designator
Station Type Date Time Source
ENVA METAR 2022/07/03 14:20 UTC NOAA

ENVA 031420Z 22015KT 9999 VCSH FEW050TCU SCT070 21/12 Q1008 RMK WIND 670FT 26014KT


Station Type Date Time Source
ENVA Decoded METAR 2022/07/03 14:20 UTC NOAA

Trondheim / Vaernes, Norway (ENVA) 63-28N 010-56E 17M
Jul 03, 2022 - 10:20 AM EDT / 2022.07.03 1420 UTC
Wind: from the SW (220 degrees) at 17 MPH (15 KT):0
Visibility: greater than 7 mile(s):0
Sky conditions: partly cloudy
Weather: showers in the vicinity; Towering cumulus clouds observed
Temperature: 69 F (21 C)
Dew Point: 53 F (12 C)
Relative Humidity: 56%
Pressure (altimeter): 29.77 in. Hg (1008 hPa)
ob: ENVA 031420Z 22015KT 9999 VCSH FEW050TCU SCT070 21/12 Q1008 RMK WIND 670FT 26014KT
cycle: 14

Station Type Date Time Source
ENVA TAF 2022/07/03 14:24 UTC NOAA

TAF TAF
AMD ENVA 0314/0412 26012KT 9999 SCT040TCU
TEMPO 0314/0324 4000 SHRA BKN012CB PROB30
TEMPO 0314/0319 29015G25KT TS
BECMG 0316/0318 VRB05KT
TEMPO 0408/0412 4000 SHRA BKN012CB

Example: see airport list